createdAt,value
2022-12-13T00:01:52.166Z,98926.97
2022-12-13T00:04:23.209Z,98933.66
2022-12-13T00:06:54.473Z,98935.75
2022-12-13T00:09:24.277Z,98936.13
2022-12-13T00:11:55.965Z,98941.03
2022-12-13T00:14:26.149Z,98945.53
2022-12-13T00:16:56.270Z,98935.03
2022-12-13T00:19:26.020Z,98945.97
2022-12-13T00:21:55.588Z,98947.41
2022-12-13T00:24:25.174Z,98952.59
2022-12-13T00:26:56.889Z,98957.38
2022-12-13T00:29:26.825Z,98959.19
2022-12-13T00:32:01.139Z,98952.34
2022-12-13T00:34:31.154Z,98959.44
2022-12-13T00:37:00.687Z,98959.88
2022-12-13T00:39:30.285Z,98963.03
2022-12-13T00:42:01.396Z,98968.84
2022-12-13T00:44:31.465Z,98971.97
2022-12-13T00:47:01.080Z,98981.44
2022-12-13T00:49:30.670Z,98976.88
2022-12-13T00:52:00.237Z,98974.63
2022-12-13T00:54:29.704Z,98981.84
2022-12-13T00:56:59.322Z,98977.66
2022-12-13T00:59:30.494Z,98980.91
2022-12-13T01:02:00.380Z,98978.25
2022-12-13T01:04:29.948Z,98981.88
2022-12-13T01:06:59.640Z,98985.47
2022-12-13T01:09:31.157Z,98986.19
2022-12-13T01:12:03.020Z,98982.44
2022-12-13T01:14:35.772Z,98980.63
2022-12-13T01:17:05.917Z,98973.66
2022-12-13T01:19:35.620Z,98984.13
2022-12-13T01:22:06.724Z,98979.06
2022-12-13T01:24:36.201Z,98974.66
2022-12-13T01:27:05.828Z,98969.81
2022-12-13T01:29:36.839Z,98974.03
2022-12-13T01:32:06.824Z,98975.97
2022-12-13T01:34:36.385Z,98980.53
2022-12-13T01:37:05.964Z,98974.63
2022-12-13T01:39:38.120Z,98971.53
2022-12-13T01:42:08.168Z,98972.34
2022-12-13T01:45:07.860Z,98962.97
2022-12-13T01:47:41.032Z,98973.69
2022-12-13T01:50:13.655Z,98970.31
2022-12-13T01:52:43.869Z,98976.94
2022-12-13T01:55:13.609Z,98976.78
2022-12-13T01:57:45.852Z,98982.13
2022-12-13T02:00:16.366Z,98975.97
2022-12-13T02:02:48.699Z,98981.63
2022-12-13T02:05:22.540Z,98981.84
2022-12-13T02:07:52.345Z,98983.31
2022-12-13T02:10:22.215Z,98975.63
2022-12-13T02:12:52.186Z,98968.50
2022-12-13T02:15:22.812Z,98971.50
2022-12-13T02:18:07.101Z,98980.41
2022-12-13T02:20:48.653Z,98974.50
2022-12-13T02:23:36.669Z,98973.16
2022-12-13T02:26:25.260Z,98971.59
2022-12-13T02:29:03.942Z,98976.78
2022-12-13T02:31:41.300Z,98966.53
2022-12-13T02:34:14.896Z,98971.06
2022-12-13T02:36:50.044Z,98982.72
2022-12-13T02:39:29.784Z,98989.09
2022-12-13T02:42:01.909Z,99000.16
2022-12-13T02:44:32.967Z,98996.28
2022-12-13T02:47:06.790Z,98990.59
2022-12-13T02:49:47.053Z,98990.53
2022-12-13T02:52:22.541Z,99000.88
2022-12-13T02:54:52.413Z,98995.25
2022-12-13T02:57:32.225Z,99006.94
2022-12-13T03:00:03.749Z,99015.50
2022-12-13T03:02:39.620Z,99001.06
2022-12-13T03:05:33.409Z,98992.41
2022-12-13T03:08:10.924Z,98988.69
2022-12-13T03:10:45.781Z,98980.81
2022-12-13T03:13:36.577Z,98983.13
2022-12-13T03:16:10.322Z,98980.28
2022-12-13T03:18:41.910Z,98987.41
2022-12-13T03:21:13.233Z,98997.06
2022-12-13T03:23:43.066Z,98993.66
2022-12-13T03:26:14.766Z,98999.69
2022-12-13T03:28:44.528Z,99011.63
2022-12-13T03:31:14.240Z,99015.09
2022-12-13T03:33:45.569Z,99017.06
2022-12-13T03:36:15.586Z,99018.31
2022-12-13T03:38:45.115Z,99026.25
2022-12-13T03:41:16.120Z,99028.25
2022-12-13T03:43:46.258Z,99041.56
2022-12-13T03:46:16.133Z,99044.94
2022-12-13T03:48:47.043Z,99048.91
2022-12-13T03:51:16.849Z,99059.13
2022-12-13T03:53:46.341Z,99055.84
2022-12-13T03:56:15.842Z,99060.28
2022-12-13T03:58:45.371Z,99063.41
2022-12-13T04:01:15.751Z,99059.50
2022-12-13T04:03:46.147Z,99057.75
2022-12-13T04:06:22.241Z,99062.72
2022-12-13T04:08:53.580Z,99057.03
2022-12-13T04:11:42.969Z,99061.13
2022-12-13T04:14:22.771Z,99058.72
2022-12-13T04:16:53.415Z,99064.84
2022-12-13T04:19:24.107Z,99070.13
2022-12-13T04:21:55.368Z,99072.13
2022-12-13T04:24:31.678Z,99073.50
2022-12-13T04:27:02.210Z,99070.03
2022-12-13T04:29:33.900Z,99073.72
2022-12-13T04:32:05.152Z,99072.66
2022-12-13T04:35:01.013Z,99093.59
2022-12-13T04:37:32.790Z,99079.00
2022-12-13T04:40:02.268Z,99087.25
2022-12-13T04:42:31.883Z,99083.44
2022-12-13T04:45:01.516Z,99084.19
2022-12-13T04:47:31.152Z,99087.25
2022-12-13T04:50:00.625Z,99098.34
2022-12-13T04:52:30.304Z,99090.84
2022-12-13T04:55:01.323Z,99102.22
2022-12-13T04:57:31.062Z,99105.84
2022-12-13T05:00:00.661Z,99114.81
2022-12-13T05:02:30.260Z,99111.03
2022-12-13T05:05:00.423Z,99108.16
2022-12-13T05:07:30.206Z,99114.91
2022-12-13T05:10:01.187Z,99109.53
2022-12-13T05:12:31.513Z,99115.22
2022-12-13T05:15:01.510Z,99121.88
2022-12-13T05:17:31.845Z,99131.94
2022-12-13T05:20:01.437Z,99144.50
2022-12-13T05:22:31.200Z,99148.50
2022-12-13T05:25:02.205Z,99149.34
2022-12-13T05:27:31.719Z,99149.56
2022-12-13T05:30:01.532Z,99162.09
2022-12-13T05:32:43.895Z,99159.59
2022-12-13T05:35:23.113Z,99165.78
2022-12-13T05:37:53.972Z,99176.81
2022-12-13T05:40:25.590Z,99179.00
2022-12-13T05:43:00.991Z,99186.53
2022-12-13T05:45:32.274Z,99190.31
2022-12-13T05:48:02.009Z,99187.56
2022-12-13T05:50:31.826Z,99196.75
2022-12-13T05:53:02.064Z,99213.63
2022-12-13T05:55:32.993Z,99208.03
2022-12-13T05:58:02.752Z,99210.88
2022-12-13T06:00:32.384Z,99215.88
2022-12-13T06:03:02.235Z,99221.06
2022-12-13T06:05:32.397Z,99218.06
2022-12-13T06:08:02.041Z,99228.34
2022-12-13T06:10:34.949Z,99224.63
2022-12-13T06:13:21.606Z,99224.94
2022-12-13T06:16:01.669Z,99234.00
2022-12-13T06:18:32.396Z,99241.38
2022-12-13T06:21:02.889Z,99248.25
2022-12-13T06:23:32.995Z,99242.72
2022-12-13T06:26:05.305Z,99249.03
2022-12-13T06:28:34.893Z,99255.47
2022-12-13T06:31:05.572Z,99262.06
2022-12-13T06:33:36.791Z,99261.94
2022-12-13T06:36:06.868Z,99262.75
2022-12-13T06:38:43.226Z,99264.59
2022-12-13T06:41:15.632Z,99257.56
2022-12-13T06:43:45.717Z,99266.53
2022-12-13T06:46:15.914Z,99276.00
2022-12-13T06:48:45.562Z,99280.56
2022-12-13T06:51:22.933Z,99282.72
2022-12-13T06:54:03.296Z,99288.69
2022-12-13T06:56:34.429Z,99289.00
2022-12-13T06:59:03.944Z,99282.25
2022-12-13T07:01:36.770Z,99292.84
2022-12-13T07:04:30.356Z,99300.38
2022-12-13T07:07:01.984Z,99298.56
2022-12-13T07:09:31.982Z,99308.03
2022-12-13T07:12:05.074Z,99315.84
2022-12-13T07:14:40.991Z,99306.44
2022-12-13T07:17:11.873Z,99312.50
2022-12-13T07:19:41.333Z,99312.28
2022-12-13T07:22:11.318Z,99317.09
2022-12-13T07:24:40.965Z,99323.13
2022-12-13T07:27:11.974Z,99322.03
2022-12-13T07:29:41.806Z,99323.50
2022-12-13T07:32:12.182Z,99331.75
2022-12-13T07:34:41.842Z,99331.19
2022-12-13T07:37:30.002Z,99327.25
2022-12-13T07:40:04.353Z,99326.63
2022-12-13T07:42:35.747Z,99333.63
2022-12-13T07:45:06.559Z,99337.47
2022-12-13T07:47:36.268Z,99345.91
2022-12-13T07:50:06.675Z,99340.25
2022-12-13T07:52:54.483Z,99341.44
2022-12-13T07:55:32.789Z,99352.63
2022-12-13T07:58:06.064Z,99355.84
2022-12-13T08:00:35.710Z,99359.94
2022-12-13T08:03:05.547Z,99365.72
2022-12-13T08:05:38.545Z,99373.66
2022-12-13T08:08:10.262Z,99382.47
2022-12-13T08:10:40.313Z,99330.75
2022-12-13T08:13:21.956Z,99388.69
2022-12-13T08:15:52.348Z,99383.31
2022-12-13T08:18:21.909Z,99392.09
2022-12-13T08:20:51.473Z,99402.22
2022-12-13T08:23:21.096Z,99399.88
2022-12-13T08:25:52.611Z,99396.81
2022-12-13T08:28:23.939Z,99401.16
2022-12-13T08:30:53.731Z,99401.84
2022-12-13T08:33:23.734Z,99388.41
2022-12-13T08:35:53.268Z,99397.88
2022-12-13T08:38:23.807Z,99397.91
2022-12-13T08:41:03.282Z,99400.91
2022-12-13T08:43:34.197Z,99406.72
2022-12-13T08:46:07.304Z,99393.50
2022-12-13T08:48:37.016Z,99388.84
2022-12-13T08:51:15.185Z,99383.25
2022-12-13T08:54:10.539Z,99383.03
2022-12-13T08:56:43.735Z,99375.53
2022-12-13T08:59:16.136Z,99371.84
2022-12-13T09:01:46.647Z,99368.59
2022-12-13T09:04:16.431Z,99373.19
2022-12-13T09:06:46.313Z,99378.59
2022-12-13T09:09:16.360Z,99377.81
2022-12-13T09:11:47.153Z,99377.91
2022-12-13T09:14:18.489Z,99374.66
2022-12-13T09:16:53.764Z,99375.41
2022-12-13T09:19:26.718Z,99367.13
2022-12-13T09:22:02.433Z,99370.53
2022-12-13T09:24:36.433Z,99364.97
2022-12-13T09:27:09.043Z,99361.56
2022-12-13T09:29:40.621Z,99352.81
2022-12-13T09:32:10.218Z,99347.91
2022-12-13T09:34:39.938Z,99347.56
2022-12-13T09:37:11.983Z,99337.97
2022-12-13T09:39:41.533Z,99343.38
2022-12-13T09:42:15.637Z,99336.41
2022-12-13T09:45:03.122Z,99332.06
2022-12-13T09:47:35.653Z,99328.06
2022-12-13T09:50:07.449Z,99325.06
2022-12-13T09:52:46.165Z,99317.25
2022-12-13T09:55:19.393Z,99313.47
2022-12-13T09:57:49.801Z,99317.88
2022-12-13T10:00:22.460Z,99302.88
2022-12-13T10:02:53.239Z,99300.84
2022-12-13T10:05:35.750Z,99293.03
2022-12-13T10:08:10.125Z,99301.94
2022-12-13T10:10:39.825Z,99298.84
2022-12-13T10:13:16.077Z,99304.34
2022-12-13T10:15:49.923Z,99293.47
2022-12-13T10:18:37.437Z,99292.19
2022-12-13T10:21:10.995Z,99294.84
2022-12-13T10:24:15.294Z,99303.63
2022-12-13T10:26:36.610Z,99305.41
2022-12-13T10:29:07.367Z,99311.03
2022-12-13T10:31:43.522Z,99300.25
2022-12-13T10:34:18.381Z,99309.66
2022-12-13T10:36:48.044Z,99307.41
2022-12-13T10:39:19.208Z,99300.03
2022-12-13T10:41:48.811Z,99289.88
2022-12-13T10:44:22.656Z,99296.66
2022-12-13T10:47:01.245Z,99307.31
2022-12-13T10:49:38.637Z,99309.66
2022-12-13T10:52:30.943Z,99305.81
2022-12-13T10:55:04.579Z,99303.19
2022-12-13T10:57:53.703Z,99300.25
2022-12-13T11:00:35.105Z,99294.41
2022-12-13T11:03:06.576Z,99306.25
2022-12-13T11:05:37.491Z,99309.22
2022-12-13T11:08:14.328Z,99317.78
2022-12-13T11:10:44.178Z,99315.16
2022-12-13T11:13:24.105Z,99302.75
2022-12-13T11:15:57.958Z,99294.09
2022-12-13T11:18:34.075Z,99289.31
2022-12-13T11:21:04.519Z,99282.22
2022-12-13T11:23:43.634Z,99280.13
2022-12-13T11:26:24.234Z,99275.28
2022-12-13T11:29:02.342Z,99270.72
2022-12-13T11:31:37.743Z,99265.31
2022-12-13T11:34:13.493Z,99267.84
2022-12-13T11:36:46.529Z,99270.84
2022-12-13T11:39:20.798Z,99271.38
2022-12-13T11:41:55.463Z,99267.13
2022-12-13T11:44:29.597Z,99278.97
2022-12-13T11:47:00.935Z,99278.75
2022-12-13T11:49:37.451Z,99287.97
2022-12-13T11:52:12.642Z,99288.81
2022-12-13T11:54:48.993Z,99272.41
2022-12-13T11:57:24.386Z,99275.78
2022-12-13T12:00:02.362Z,99269.66
2022-12-13T12:02:34.949Z,99270.19
2022-12-13T12:05:08.154Z,99260.88
2022-12-13T12:07:58.475Z,99261.63
2022-12-13T12:10:32.717Z,99264.88
2022-12-13T12:13:07.175Z,99257.59
2022-12-13T12:15:42.497Z,99218.59
2022-12-13T12:18:14.556Z,99261.84
2022-12-13T12:20:58.758Z,99260.34
2022-12-13T12:23:48.411Z,99271.88
2022-12-13T12:26:24.971Z,99261.63
2022-12-13T12:29:02.521Z,99263.84
2022-12-13T12:31:34.324Z,99267.19
2022-12-13T12:34:27.604Z,99259.69
2022-12-13T12:37:07.707Z,99266.34
2022-12-13T12:39:45.467Z,99270.91
2022-12-13T12:42:25.348Z,99268.25
2022-12-13T12:45:03.223Z,99269.59
2022-12-13T12:48:08.625Z,99263.47
2022-12-13T12:50:42.982Z,99267.09
2022-12-13T12:53:24.132Z,99257.56
2022-12-13T12:56:00.680Z,99249.19
2022-12-13T12:58:34.908Z,99250.69
2022-12-13T13:01:13.646Z,99247.41
2022-12-13T13:03:44.610Z,99258.19
2022-12-13T13:06:17.787Z,99260.84
2022-12-13T13:08:55.308Z,99262.00
2022-12-13T13:11:26.310Z,99266.47
2022-12-13T13:14:06.555Z,99277.69
2022-12-13T13:16:37.742Z,99267.31
2022-12-13T13:19:25.736Z,99271.03
2022-12-13T13:22:01.619Z,99263.94
2022-12-13T13:24:34.785Z,99278.66
2022-12-13T13:27:19.408Z,99286.81
2022-12-13T13:29:49.041Z,99281.72
2022-12-13T13:32:29.146Z,99283.19
2022-12-13T13:35:17.989Z,99293.13
2022-12-13T13:37:48.378Z,99297.59
2022-12-13T13:40:31.443Z,99299.06
2022-12-13T13:43:19.523Z,99304.25
2022-12-13T13:46:00.077Z,99317.50
2022-12-13T13:48:37.514Z,99324.56
2022-12-13T13:51:28.271Z,99341.91
2022-12-13T13:54:15.871Z,99349.22
2022-12-13T13:57:10.266Z,99358.72
2022-12-13T14:00:02.257Z,99373.22
2022-12-13T14:02:45.963Z,99384.31
2022-12-13T14:05:29.407Z,99391.41
2022-12-13T14:08:20.101Z,99405.34
2022-12-13T14:11:01.316Z,99411.28
2022-12-13T14:13:56.603Z,99416.91
2022-12-13T14:16:42.301Z,99431.97
2022-12-13T14:19:26.778Z,99424.91
2022-12-13T14:22:02.697Z,99433.91
2022-12-13T14:24:39.727Z,99433.81
2022-12-13T14:27:22.532Z,99437.28
2022-12-13T14:29:58.137Z,99432.94
2022-12-13T14:32:30.041Z,99437.13
2022-12-13T14:35:24.982Z,99438.91
2022-12-13T14:37:57.738Z,99422.75
2022-12-13T14:40:29.325Z,99405.38
2022-12-13T14:42:58.989Z,99396.63
2022-12-13T14:45:30.515Z,99394.84
2022-12-13T14:48:01.121Z,99406.03
2022-12-13T14:50:34.232Z,99411.75
2022-12-13T14:53:04.215Z,99411.94
2022-12-13T14:55:36.269Z,99409.81
2022-12-13T14:58:16.962Z,99409.81
2022-12-13T15:00:46.893Z,99414.97
2022-12-13T15:03:22.366Z,99414.63
2022-12-13T15:05:56.029Z,99407.09
2022-12-13T15:08:26.086Z,99411.44
2022-12-13T15:10:56.996Z,99409.16
2022-12-13T15:13:29.976Z,99403.00
2022-12-13T15:16:10.263Z,99409.97
2022-12-13T15:18:40.834Z,99409.16
2022-12-13T15:21:22.068Z,99403.88
2022-12-13T15:23:52.736Z,99411.69
2022-12-13T15:26:29.002Z,99414.75
2022-12-13T15:29:00.646Z,99424.38
2022-12-13T15:31:32.891Z,99415.38
2022-12-13T15:34:29.024Z,99417.28
2022-12-13T15:37:01.956Z,99417.91
2022-12-13T15:39:32.189Z,99426.06
2022-12-13T15:42:01.934Z,99426.38
2022-12-13T15:44:33.621Z,99431.38
2022-12-13T15:47:05.166Z,99446.31
2022-12-13T15:49:37.810Z,99444.81
2022-12-13T15:52:24.881Z,99461.34
2022-12-13T15:54:56.591Z,99465.34
2022-12-13T15:57:27.383Z,99463.66
2022-12-13T16:00:05.343Z,99464.91
2022-12-13T16:02:35.542Z,99467.91
2022-12-13T16:05:09.207Z,99473.09
2022-12-13T16:07:40.776Z,99462.75
2022-12-13T16:10:18.740Z,99474.44
2022-12-13T16:12:50.484Z,99483.38
2022-12-13T16:15:29.392Z,99480.53
2022-12-13T16:18:07.724Z,99483.38
2022-12-13T16:20:37.566Z,99483.19
2022-12-13T16:23:08.951Z,99462.75
2022-12-13T16:25:38.834Z,99471.69
2022-12-13T16:28:08.460Z,99485.63
2022-12-13T16:30:55.455Z,99490.06
2022-12-13T16:33:29.648Z,99491.66
2022-12-13T16:35:59.343Z,99489.56
2022-12-13T16:38:30.308Z,99489.59
2022-12-13T16:41:09.155Z,99502.75
2022-12-13T16:43:41.004Z,99502.75
2022-12-13T16:47:12.886Z,99505.03
2022-12-13T16:49:03.123Z,99518.66
2022-12-13T16:51:32.678Z,99526.66
2022-12-13T16:54:03.606Z,99468.72
2022-12-13T16:56:33.445Z,99530.16
2022-12-13T16:59:03.097Z,99543.31
2022-12-13T17:01:33.169Z,99541.81
2022-12-13T17:04:09.148Z,99544.47
2022-12-13T17:06:41.858Z,99552.97
2022-12-13T17:09:12.847Z,99551.59
2022-12-13T17:11:43.196Z,99552.69
2022-12-13T17:14:13.055Z,99563.06
2022-12-13T17:16:43.345Z,99565.09
2022-12-13T17:19:15.532Z,99558.28
2022-12-13T17:21:45.224Z,99564.34
2022-12-13T17:24:16.340Z,99568.53
2022-12-13T17:26:57.351Z,99565.72
2022-12-13T17:29:27.463Z,99565.72
2022-12-13T17:31:57.226Z,99575.56
2022-12-13T17:34:27.188Z,99573.44
2022-12-13T17:36:56.686Z,99563.66
2022-12-13T17:39:27.831Z,99558.81
2022-12-13T17:41:57.502Z,99559.25
2022-12-13T17:44:27.721Z,99565.88
2022-12-13T17:46:57.263Z,99561.00
2022-12-13T17:49:27.159Z,99561.63
2022-12-13T17:51:56.838Z,99568.25
2022-12-13T17:54:29.507Z,99567.03
2022-12-13T17:56:59.059Z,99563.53
2022-12-13T17:59:28.980Z,99565.41
2022-12-13T18:01:58.848Z,99564.31
2022-12-13T18:04:28.466Z,99564.16
2022-12-13T18:06:58.096Z,99556.34
2022-12-13T18:09:29.133Z,99556.50
2022-12-13T18:11:59.338Z,99552.66
2022-12-13T18:14:29.535Z,99557.19
2022-12-13T18:16:59.756Z,99557.28
2022-12-13T18:19:31.971Z,99565.56
2022-12-13T18:22:02.112Z,99555.91
2022-12-13T18:24:33.156Z,99555.03
2022-12-13T18:27:02.690Z,99556.94
2022-12-13T18:29:32.361Z,99560.78
2022-12-13T18:32:01.948Z,99564.00
2022-12-13T18:34:31.558Z,99564.34
2022-12-13T18:37:02.047Z,99568.97
2022-12-13T18:39:34.728Z,99564.34
2022-12-13T18:42:04.535Z,99564.78
2022-12-13T18:44:34.148Z,99565.81
2022-12-13T18:47:04.804Z,99566.19
2022-12-13T18:49:34.362Z,99566.84
2022-12-13T18:52:04.079Z,99567.50
2022-12-13T18:54:35.451Z,99570.47
2022-12-13T18:57:05.208Z,99573.00
2022-12-13T18:59:34.755Z,99569.06
2022-12-13T19:02:04.530Z,99575.97
2022-12-13T19:04:35.872Z,99573.94
2022-12-13T19:07:05.620Z,99568.63
2022-12-13T19:09:36.555Z,99573.41
2022-12-13T19:12:07.084Z,99564.72
2022-12-13T19:14:38.451Z,99576.44
2022-12-13T19:17:08.621Z,99570.59
2022-12-13T19:19:38.398Z,99575.06
2022-12-13T19:22:08.919Z,99574.66
2022-12-13T19:24:39.873Z,99576.88
2022-12-13T19:27:09.676Z,99571.94
2022-12-13T19:29:39.279Z,99567.94
2022-12-13T19:32:09.209Z,99572.44
2022-12-13T19:34:39.649Z,99576.28
2022-12-13T19:37:09.394Z,99581.78
2022-12-13T19:39:40.291Z,99577.84
2022-12-13T19:42:10.876Z,99583.63
2022-12-13T19:44:40.445Z,99587.50
2022-12-13T19:47:11.111Z,99589.81
2022-12-13T19:49:40.750Z,99592.06
2022-12-13T19:52:12.705Z,99596.47
2022-12-13T19:54:43.837Z,99597.25
2022-12-13T19:57:13.662Z,99591.00
2022-12-13T19:59:43.352Z,99593.66
2022-12-13T20:02:13.778Z,99595.38
2022-12-13T20:04:44.779Z,99595.84
2022-12-13T20:07:14.403Z,99594.00
2022-12-13T20:09:45.398Z,99591.44
2022-12-13T20:12:15.791Z,99582.78
2022-12-13T20:14:45.803Z,99579.59
2022-12-13T20:17:15.853Z,99575.88
2022-12-13T20:19:45.376Z,99578.06
2022-12-13T20:22:15.658Z,99577.78
2022-12-13T20:24:46.641Z,99585.47
2022-12-13T20:27:18.833Z,99584.25
2022-12-13T20:29:48.701Z,99580.75
2022-12-13T20:32:18.336Z,99584.88
2022-12-13T20:34:54.379Z,99586.78
2022-12-13T20:37:24.523Z,99583.03
2022-12-13T20:39:55.629Z,99583.72
2022-12-13T20:42:25.213Z,99578.34
2022-12-13T20:44:54.708Z,99583.31
2022-12-13T20:47:24.564Z,99582.16
2022-12-13T20:49:54.308Z,99587.50
2022-12-13T20:52:24.549Z,99589.69
2022-12-13T20:54:55.631Z,99584.09
2022-12-13T20:57:25.402Z,99593.38
2022-12-13T20:59:54.948Z,99596.53
2022-12-13T21:02:24.525Z,99600.31
2022-12-13T21:04:54.096Z,99596.63
2022-12-13T21:07:44.420Z,99597.94
2022-12-13T21:10:19.368Z,99593.16
2022-12-13T21:12:49.380Z,99603.03
2022-12-13T21:15:19.479Z,99598.00
2022-12-13T21:17:48.981Z,99589.88
2022-12-13T21:20:18.607Z,99591.66
2022-12-13T21:22:48.155Z,99598.16
2022-12-13T21:25:19.095Z,99595.13
2022-12-13T21:27:48.849Z,99596.84
2022-12-13T21:30:18.473Z,99593.72
2022-12-13T21:32:51.419Z,99593.22
2022-12-13T21:35:22.475Z,99595.03
2022-12-13T21:37:52.041Z,99582.38
2022-12-13T21:40:24.227Z,99584.38
2022-12-13T21:42:53.681Z,99586.66
2022-12-13T21:45:23.356Z,99584.25
2022-12-13T21:47:52.934Z,99589.19
2022-12-13T21:50:22.502Z,99581.13
2022-12-13T21:52:52.059Z,99581.63
2022-12-13T21:55:38.984Z,99574.97
2022-12-13T21:58:27.647Z,99585.56
2022-12-13T22:00:57.652Z,99593.72
2022-12-13T22:03:27.447Z,99584.94
2022-12-13T22:05:57.324Z,99593.66
2022-12-13T22:08:27.559Z,99589.63
2022-12-13T22:11:20.864Z,99588.56
2022-12-13T22:13:51.270Z,99592.97
2022-12-13T22:16:21.437Z,99590.13
2022-12-13T22:18:51.132Z,99586.31
2022-12-13T22:21:20.859Z,99593.50
2022-12-13T22:23:53.757Z,99588.63
2022-12-13T22:26:25.636Z,99585.44
2022-12-13T22:28:58.378Z,99588.63
2022-12-13T22:31:29.963Z,99590.44
2022-12-13T22:33:59.859Z,99594.78
2022-12-13T22:36:29.585Z,99601.50
2022-12-13T22:38:59.350Z,99593.00
2022-12-13T22:41:30.451Z,99592.03
2022-12-13T22:44:00.849Z,99585.03
2022-12-13T22:46:30.381Z,99589.06
2022-12-13T22:49:00.173Z,99597.19
2022-12-13T22:51:29.828Z,99590.31
2022-12-13T22:53:59.775Z,99587.09
2022-12-13T22:56:30.723Z,99576.50
2022-12-13T22:59:01.838Z,99580.19
2022-12-13T23:01:32.627Z,99587.47
2022-12-13T23:04:03.276Z,99600.91
2022-12-13T23:06:33.886Z,99604.41
2022-12-13T23:09:05.746Z,99598.19
2022-12-13T23:11:54.432Z,99598.06
2022-12-13T23:14:27.224Z,99602.31
2022-12-13T23:16:57.446Z,99609.31
2022-12-13T23:19:50.009Z,99607.44
2022-12-13T23:22:16.902Z,99600.38
2022-12-13T23:24:46.443Z,99603.31
2022-12-13T23:27:17.409Z,99614.06
2022-12-13T23:29:46.914Z,99621.47
2022-12-13T23:32:16.581Z,99629.22
2022-12-13T23:34:46.332Z,99627.66
2022-12-13T23:37:15.897Z,99625.00
2022-12-13T23:39:45.392Z,99624.03
2022-12-13T23:42:15.013Z,99635.53
2022-12-13T23:44:45.932Z,99636.88
2022-12-13T23:47:15.464Z,99642.19
2022-12-13T23:49:44.995Z,99646.75
2022-12-13T23:52:17.929Z,99649.31
2022-12-13T23:54:47.431Z,99645.34
2022-12-13T23:57:17.006Z,99645.19
2022-12-13T23:59:47.854Z,99645.88
